KAPA

Centennial Airport

Denver, Colorado, USA
METAR KAPA 161153Z 11007KT 10SM CLR M02/M11 A3027 RMK AO2 SLP272 T10221106 10017 21044 55002
Observed Flight Rules
Dec-16 @ 11:53 UTC (53 minutes ago) Visual Flight Rules
Wind Visibility Clouds
110° at 7 knots 10 miles
  • Clear skies
Temperatures Readings
Current -2°C / 28°F
Dewpoint -11°C / 12°F
Humidity 51%
Altimeter 30.27" Hg
Pressure 1027.2 hPa
Elevation 1775
METAR KAPA 161153Z 11007KT 10SM CLR M02/M11 A3027 RMK AO2 SLP272 T10221106 10017 21044 55002
Observed Flight Rules
Dec-16 @ 11:53 UTC
(53 minutes ago)
VFR
Wind Visibility
110° at 7 knots 10 miles
Clouds
  • Clear skies
Temperature Dewpoint
-2°C / 28°F -11°C / 12°F
Humidity Altimeter Pressure
51% 30.27" Hg 1027.2 hPa